»·PEaware :: N621JF KVNY-54CL

N621JF :: KVNY-54CL

FLIGHT INFORMATION

Flight Status: Arrived
Operator: Privately registered:
United States
More flights under this callsign
Pilot: Sanjiv S. (4490)
Aircraft: BRITISH AERO BAe-3200 JETSTREAM SUPER 31
(JS32)
More flights by this aircraft type
Origin: KVNY Van Nuys
United States
Destination: 54CL Lake Riverside Estates
United States
More flights between these airports :: More routes between these airports
Route: +ADAMM1 ADAMM V186 NIKKL V64 HEMET
File this flight plan on PilotEdge
Remarks:
Altitude:
(Current/Filed)
11,000ft
Speed:
(Current/Filed)
250kts
Departed: 13-Mar-16 10:01 AM
Arrived: 13-Mar-16 10:36 AM
Distance/Time
Traveled:
94nm/0:35
Distance/Time
To Go:
Arrived

Flight Plot

Page will automatically refresh every two minutes.


Map Options




Map Legend


Flown Route
Filed Route
Departure Airport
Arrival Airport
Navaid (VOR, NDB)
Fix

Horizontal Profiles

Position Reports

Time Latitude Longitude Heading Altitude Ground
Speed
13-Mar-16 09:24 34.194272 -118.490619 0 804ft 0kts
13-Mar-16 09:25 34.194272 -118.490619 0 804ft 0kts
13-Mar-16 09:26 34.194272 -118.490619 0 804ft 0kts
13-Mar-16 09:27 34.194272 -118.490619 0 804ft 0kts
13-Mar-16 09:28 34.194272 -118.490619 0 804ft 0kts
13-Mar-16 09:29 34.194272 -118.490619 0 804ft 0kts
13-Mar-16 09:30 34.194272 -118.490619 0 804ft 0kts
13-Mar-16 09:31 34.194272 -118.490619 0 804ft 0kts
13-Mar-16 09:32 34.194272 -118.490619 0 804ft 0kts
13-Mar-16 09:33 34.194272 -118.490619 0 804ft 0kts
13-Mar-16 09:34 34.194272 -118.490619 0 804ft 0kts
13-Mar-16 09:35 34.194272 -118.490619 0 804ft 0kts
13-Mar-16 09:36 34.194272 -118.490619 0 804ft 0kts
13-Mar-16 09:37 34.194272 -118.490619 0 804ft 0kts
13-Mar-16 09:38 34.194272 -118.490619 0 804ft 0kts
13-Mar-16 09:39 34.194272 -118.490619 0 804ft 0kts
13-Mar-16 09:40 34.194272 -118.490619 0 804ft 0kts
13-Mar-16 09:41 34.194272 -118.490619 0 804ft 0kts
13-Mar-16 09:42 34.194272 -118.490619 0 804ft 0kts
13-Mar-16 09:43 34.194272 -118.490619 0 804ft 0kts
13-Mar-16 09:44 34.195716 -118.490227 356 804ft 9kts
13-Mar-16 09:45 34.198825 -118.490156 354 804ft 12kts
13-Mar-16 09:46 34.202438 -118.490656 338 804ft 13kts
13-Mar-16 09:47 34.205972 -118.491176 355 804ft 13kts
13-Mar-16 09:48 34.209635 -118.491511 355 804ft 13kts
13-Mar-16 09:49 34.213425 -118.491893 356 804ft 13kts
13-Mar-16 09:50 34.217243 -118.492263 1 804ft 13kts
13-Mar-16 09:51 34.218760 -118.491982 86 804ft 0kts
13-Mar-16 09:52 34.218760 -118.491982 86 804ft 0kts
13-Mar-16 09:53 34.218760 -118.491982 86 804ft 0kts
13-Mar-16 09:54 34.216937 -118.491049 178 804ft 55kts
13-Mar-16 09:55 34.178779 -118.485590 172 1523ft 188kts
13-Mar-16 09:56 34.136588 -118.446794 119 1805ft 215kts
13-Mar-16 09:57 34.107360 -118.384873 120 2360ft 197kts
13-Mar-16 09:58 34.084337 -118.338167 119 3901ft 148kts
13-Mar-16 09:59 34.061563 -118.292977 0 3996ft 0kts
13-Mar-16 10:00 34.033035 -118.234270 104 3984ft 220kts
13-Mar-16 10:01 34.028695 -118.164660 91 4875ft 191kts
13-Mar-16 10:02 34.024477 -118.105283 91 5935ft 179kts
13-Mar-16 10:03 34.019442 -118.044718 91 6996ft 197kts
13-Mar-16 10:04 34.013814 -117.971358 91 7005ft 235kts
13-Mar-16 10:05 34.008131 -117.891636 91 6998ft 241kts
13-Mar-16 10:06 34.003028 -117.811292 90 6999ft 243kts
13-Mar-16 10:07 33.986943 -117.730682 106 6996ft 252kts
13-Mar-16 10:08 33.961690 -117.652390 109 6996ft 254kts
13-Mar-16 10:09 33.933969 -117.573559 110 7000ft 255kts
13-Mar-16 10:10 33.892889 -117.511004 141 7781ft 227kts
13-Mar-16 10:11 33.848007 -117.470987 145 8518ft 220kts
13-Mar-16 10:12 33.798310 -117.429237 145 9056ft 223kts
13-Mar-16 10:13 33.747147 -117.386294 145 9564ft 226kts
13-Mar-16 10:14 33.714654 -117.330795 75 9968ft 220kts
13-Mar-16 10:15 33.717159 -117.254798 87 10971ft 241kts
13-Mar-16 10:16 33.712249 -117.166704 91 10984ft 281kts
13-Mar-16 10:17 33.705239 -117.070331 90 10970ft 296kts
13-Mar-16 10:18 33.699847 -116.973686 90 9866ft 287kts
13-Mar-16 10:19 33.694636 -116.880288 90 8829ft 279kts
13-Mar-16 10:20 33.666950 -116.800838 150 7927ft 271kts
13-Mar-16 10:21 33.607161 -116.760426 150 7891ft 225kts
13-Mar-16 10:22 33.556312 -116.726188 150 7901ft 198kts
13-Mar-16 10:23 33.515860 -116.705452 189 7499ft 191kts
13-Mar-16 10:24 33.507107 -116.748845 284 5825ft 172kts
13-Mar-16 10:25 33.529154 -116.792587 306 4207ft 125kts
13-Mar-16 10:26 33.521297 -116.799762 104 4006ft 132kts
13-Mar-16 10:27 33.533170 -116.794429 290 4504ft 106kts
13-Mar-16 10:28 33.526690 -116.813179 115 3991ft 110kts
13-Mar-16 10:29 33.519816 -116.793661 113 3413ft 15kts
13-Mar-16 10:30 33.519905 -116.793928 294 3413ft 10kts
13-Mar-16 10:36 33.522838 -116.801445 204 3413ft 0kts
13-Mar-16 10:37 33.522838 -116.801445 204 3413ft 0kts

Navigation Log

Ident Type
Flight plan parsing failed, navigation log unavailable